createdAt,value
2017-01-21T09:35:06.024Z,13.69
2017-01-21T09:36:15.753Z,13.7
2017-01-21T09:37:25.470Z,13.33
2017-01-21T09:38:35.795Z,12.87
2017-01-21T09:39:45.952Z,12.29
2017-01-21T09:40:55.276Z,11.8
2017-01-21T09:42:05.218Z,11.58
2017-01-21T09:43:15.035Z,11.32
2017-01-21T09:44:24.752Z,11.24
2017-01-21T09:45:34.033Z,11.21
2017-01-21T09:46:43.750Z,11.49
2017-01-21T09:47:53.528Z,11.29
2017-01-21T09:49:03.252Z,11.03
2017-01-21T09:50:13.425Z,10.84
2017-01-21T09:51:24.030Z,10.73
2017-01-21T09:52:34.191Z,10.73
2017-01-21T09:53:44.164Z,10.7
2017-01-21T09:54:54.957Z,10.67
2017-01-21T09:56:05.402Z,10.48
2017-01-21T09:57:14.691Z,10.34
2017-01-21T09:58:23.988Z,10.26
2017-01-21T09:59:34.378Z,10.3
2017-01-21T10:00:45.146Z,10.52
2017-01-21T10:01:54.423Z,10.41
2017-01-21T10:03:04.648Z,10.4
2017-01-21T10:04:15.197Z,10.41
2017-01-21T10:05:26.562Z,10.26
2017-01-21T10:06:35.839Z,10.22
2017-01-21T10:07:45.556Z,10.15
2017-01-21T10:08:55.285Z,10.17
2017-01-21T10:10:05.002Z,10.26
2017-01-21T10:11:14.775Z,10.29
2017-01-21T10:12:24.056Z,10.2
2017-01-21T10:13:34.229Z,10.07
2017-01-21T10:14:44.390Z,10.22
2017-01-21T10:15:54.111Z,10.4
2017-01-21T10:17:03.884Z,10.41
2017-01-21T10:18:13.597Z,10.59
2017-01-21T10:19:23.322Z,10.64
2017-01-21T10:20:32.611Z,10.68
2017-01-21T10:21:42.332Z,10.6
2017-01-21T10:22:52.550Z,10.63
2017-01-21T10:24:01.828Z,10.7
2017-01-21T10:25:11.544Z,10.63
2017-01-21T10:26:22.145Z,10.55
2017-01-21T10:27:31.422Z,10.64
2017-01-21T10:28:41.628Z,10.68
2017-01-21T10:29:50.909Z,10.71
2017-01-21T10:31:01.074Z,10.71
2017-01-21T10:32:10.788Z,10.74
2017-01-21T10:33:20.072Z,10.81
2017-01-21T10:34:29.841Z,10.85
2017-01-21T10:35:39.552Z,10.82
2017-01-21T10:36:48.828Z,10.97
2017-01-21T10:37:59.429Z,11.03
2017-01-21T10:39:09.602Z,11.04
2017-01-21T10:40:19.812Z,11.17
2017-01-21T10:41:29.977Z,11.22
2017-01-21T10:42:39.710Z,11.17
2017-01-21T10:43:49.427Z,11.19
2017-01-21T10:45:00.024Z,11.29
2017-01-21T10:46:09.354Z,11.52
2017-01-21T10:47:19.075Z,11.7
2017-01-21T10:48:28.808Z,11.95
2017-01-21T10:49:39.405Z,12.19
2017-01-21T10:50:50.015Z,12.37
2017-01-21T10:51:59.788Z,12.47
2017-01-21T10:53:09.949Z,12.65
2017-01-21T10:54:19.230Z,12.85
2017-01-21T10:55:29.403Z,13.01
2017-01-21T10:56:38.681Z,13.22
2017-01-21T10:57:49.762Z,13.3
2017-01-21T10:58:59.087Z,13.55
2017-01-21T11:00:08.817Z,13.71
2017-01-21T11:01:18.562Z,13.96
2017-01-21T11:02:28.712Z,14.03
2017-01-21T11:03:39.356Z,14.09
2017-01-21T11:04:48.642Z,14.28
2017-01-21T11:05:59.312Z,14.42
2017-01-21T11:07:08.585Z,14.58
2017-01-21T11:08:18.302Z,14.65
2017-01-21T11:09:28.520Z,14.7
2017-01-21T11:10:38.245Z,14.95
2017-01-21T11:11:47.966Z,15.03
2017-01-21T11:12:57.260Z,15.13
2017-01-21T11:14:06.993Z,15.31
2017-01-21T11:15:17.203Z,15.41
2017-01-21T11:16:27.372Z,15.59
2017-01-21T11:17:37.817Z,15.74
2017-01-21T11:18:48.163Z,15.82
2017-01-21T11:19:58.376Z,15.96
2017-01-21T11:21:08.625Z,16.09
2017-01-21T11:22:18.791Z,16.24
2017-01-21T11:23:29.536Z,16.3
2017-01-21T11:24:38.818Z,16.41
2017-01-21T11:25:49.063Z,16.49
2017-01-21T11:26:58.804Z,16.67
2017-01-21T11:28:08.985Z,16.76
2017-01-21T11:29:18.275Z,16.89
2017-01-21T11:30:28.012Z,17.06
2017-01-21T11:31:38.221Z,17.12
2017-01-21T11:32:48.383Z,17.21
2017-01-21T11:33:58.548Z,17.28
2017-01-21T11:35:08.274Z,17.43
2017-01-21T11:36:17.999Z,17.58
2017-01-21T11:37:28.216Z,17.66
2017-01-21T11:38:37.542Z,17.82
2017-01-21T11:39:46.824Z,17.87
2017-01-21T11:40:57.412Z,18.02
2017-01-21T11:42:06.894Z,18.05
2017-01-21T11:43:17.483Z,18.11
2017-01-21T11:44:27.080Z,18.3
2017-01-21T11:45:37.458Z,18.36
2017-01-21T11:46:47.828Z,18.45
2017-01-21T11:47:58.037Z,18.55
2017-01-21T11:49:07.826Z,18.63
2017-01-21T11:50:17.556Z,18.76
2017-01-21T11:51:26.848Z,18.82
2017-01-21T11:52:37.014Z,18.91
2017-01-21T11:53:47.388Z,18.99
2017-01-21T11:54:57.169Z,19.08
2017-01-21T11:56:07.329Z,19.25
2017-01-21T11:57:17.479Z,19.33
2017-01-21T11:58:27.208Z,19.36
2017-01-21T11:59:37.941Z,19.54
2017-01-21T12:00:47.374Z,19.55
2017-01-21T12:01:57.988Z,19.58
2017-01-21T12:03:08.293Z,19.73
2017-01-21T12:04:17.586Z,19.87
2017-01-21T12:05:27.315Z,19.94
2017-01-21T12:06:37.532Z,20.08
2017-01-21T12:07:47.261Z,19.95
2017-01-21T12:08:56.987Z,20.13
2017-01-21T12:10:07.156Z,20.14
2017-01-21T12:11:17.321Z,20.24
2017-01-21T12:12:27.099Z,20.28
2017-01-21T12:13:36.824Z,20.47
2017-01-21T12:14:46.118Z,20.42
2017-01-21T12:15:56.287Z,20.54
2017-01-21T12:17:06.456Z,20.67
2017-01-21T12:18:16.773Z,20.73
2017-01-21T12:19:26.495Z,20.82
2017-01-21T12:20:36.684Z,20.95
2017-01-21T12:21:47.305Z,20.88
2017-01-21T12:22:57.931Z,20.94
2017-01-21T12:24:08.780Z,21.06
2017-01-21T12:25:18.658Z,21.09
2017-01-21T12:26:28.834Z,21.07
2017-01-21T12:27:38.124Z,21.17
2017-01-21T12:28:48.297Z,21.31
2017-01-21T12:29:58.110Z,21.37
2017-01-21T12:31:07.403Z,21.47
2017-01-21T12:32:17.153Z,21.44
2017-01-21T12:33:26.554Z,21.5
2017-01-21T12:34:35.935Z,21.65
2017-01-21T12:35:45.833Z,21.62
2017-01-21T12:36:55.150Z,21.69
2017-01-21T12:38:05.315Z,21.71
2017-01-21T12:39:15.924Z,21.74
2017-01-21T12:40:25.642Z,21.82
2017-01-21T12:41:36.479Z,21.82
2017-01-21T12:42:47.176Z,21.9
2017-01-21T12:43:56.914Z,21.98
2017-01-21T12:45:06.306Z,22
2017-01-21T12:46:15.652Z,22.06
2017-01-21T12:47:26.749Z,22.06
2017-01-21T12:48:36.035Z,22.1
2017-01-21T12:49:46.208Z,22.21
2017-01-21T12:50:55.941Z,22.1
2017-01-21T12:52:06.987Z,22.18
2017-01-21T12:53:16.780Z,22.27
2017-01-21T12:54:26.949Z,22.28
2017-01-21T12:55:37.566Z,22.31
2017-01-21T12:56:47.764Z,22.31
2017-01-21T12:57:57.261Z,22.28
2017-01-21T12:59:07.922Z,22.3
2017-01-21T13:00:18.572Z,22.28
2017-01-21T13:01:28.313Z,22.33
2017-01-21T13:02:38.482Z,22.31
2017-01-21T13:03:48.216Z,22.35
2017-01-21T13:04:58.109Z,22.36
2017-01-21T13:06:07.841Z,22.43
2017-01-21T13:07:18.007Z,22.45
2017-01-21T13:08:27.809Z,22.42
2017-01-21T13:09:37.102Z,22.43
2017-01-21T13:10:47.439Z,22.42
2017-01-21T13:12:01.332Z,22.46
2017-01-21T13:13:19.578Z,22.49
2017-01-21T13:14:32.751Z,22.47
2017-01-21T13:15:42.556Z,22.49
2017-01-21T13:16:53.113Z,22.47
2017-01-21T13:18:02.835Z,22.46
2017-01-21T13:19:12.612Z,22.54
2017-01-21T13:20:23.214Z,22.46
2017-01-21T13:21:33.002Z,22.52
2017-01-21T13:22:43.151Z,22.47
2017-01-21T13:23:52.881Z,22.45
2017-01-21T13:25:02.169Z,22.49
2017-01-21T13:26:12.007Z,22.47
2017-01-21T13:27:22.028Z,22.47
2017-01-21T13:28:32.198Z,22.45
2017-01-21T13:29:42.370Z,22.42
2017-01-21T13:30:51.871Z,22.47
2017-01-21T13:32:02.041Z,22.45
2017-01-21T13:33:12.517Z,22.43
2017-01-21T13:34:22.243Z,22.39
2017-01-21T13:35:31.964Z,22.43
2017-01-21T13:36:42.141Z,22.43
2017-01-21T13:37:51.446Z,22.4
2017-01-21T13:39:01.667Z,22.36
2017-01-21T13:40:12.356Z,22.43
2017-01-21T13:41:22.534Z,22.37
2017-01-21T13:42:32.703Z,22.39
2017-01-21T13:43:42.876Z,22.46
2017-01-21T13:44:52.668Z,22.46
2017-01-21T13:46:02.402Z,22.33
2017-01-21T13:47:12.239Z,22.28
2017-01-21T13:48:21.985Z,22.4
2017-01-21T13:49:32.366Z,22.43
2017-01-21T13:50:42.584Z,22.42
2017-01-21T13:51:51.904Z,22.42
2017-01-21T13:53:01.193Z,22.43
2017-01-21T13:54:11.370Z,22.43
2017-01-21T13:55:21.128Z,22.43
2017-01-21T13:56:31.112Z,22.45
2017-01-21T13:57:40.410Z,22.42
2017-01-21T13:58:50.635Z,22.39
2017-01-21T14:00:01.684Z,22.43
2017-01-21T14:01:11.413Z,22.39
2017-01-21T14:02:21.134Z,22.36
2017-01-21T14:03:31.295Z,22.42
2017-01-21T14:04:41.073Z,22.31
2017-01-21T14:05:50.822Z,22.36
2017-01-21T14:07:00.555Z,22.31
2017-01-21T14:08:10.292Z,22.27
2017-01-21T14:09:20.453Z,22.24
2017-01-21T14:10:30.674Z,22.24
2017-01-21T14:11:40.843Z,22.2
2017-01-21T14:12:50.132Z,22.1
2017-01-21T14:13:59.865Z,22.18
2017-01-21T14:15:09.814Z,22.09
2017-01-21T14:16:20.027Z,21.91
2017-01-21T14:17:29.769Z,21.98
2017-01-21T14:18:39.942Z,21.91
2017-01-21T14:19:49.891Z,21.83
2017-01-21T14:20:59.176Z,21.8
2017-01-21T14:22:08.725Z,21.74
2017-01-21T14:23:18.458Z,21.68
2017-01-21T14:24:27.743Z,21.72
2017-01-21T14:25:37.480Z,21.77
2017-01-21T14:26:48.722Z,21.64
2017-01-21T14:27:58.947Z,21.65
2017-01-21T14:29:08.459Z,21.58
2017-01-21T14:30:18.181Z,21.5
2017-01-21T14:31:28.127Z,21.5
2017-01-21T14:32:37.855Z,21.46
2017-01-21T14:33:47.848Z,21.49
2017-01-21T14:34:58.454Z,21.4
2017-01-21T14:36:11.207Z,21.38
2017-01-21T14:37:23.684Z,21.32
2017-01-21T14:38:37.141Z,21.31
2017-01-21T14:39:47.338Z,21.29
2017-01-21T14:40:57.071Z,21.27
2017-01-21T14:42:06.801Z,21.14
2017-01-21T14:43:16.966Z,21.12
2017-01-21T14:44:26.746Z,21.22
2017-01-21T14:45:36.468Z,21.09
2017-01-21T14:46:46.637Z,21.12
2017-01-21T14:47:56.806Z,21.04
2017-01-21T14:49:06.103Z,20.98
2017-01-21T14:50:16.424Z,21.07
2017-01-21T14:51:25.826Z,21.04
2017-01-21T14:52:42.438Z,21.06
2017-01-21T14:53:57.112Z,20.97
2017-01-21T14:55:11.861Z,20.95
2017-01-21T14:56:22.610Z,20.95
2017-01-21T14:57:32.732Z,20.88
2017-01-21T14:58:42.472Z,20.95
2017-01-21T14:59:58.710Z,20.84
2017-01-21T15:01:14.591Z,20.94
2017-01-21T15:02:30.689Z,20.89
2017-01-21T15:03:44.286Z,20.82
2017-01-21T15:04:55.098Z,20.77
2017-01-21T15:06:04.832Z,20.74
2017-01-21T15:07:15.050Z,20.73
2017-01-21T15:08:25.214Z,20.73
2017-01-21T15:09:35.395Z,20.7
2017-01-21T15:10:45.997Z,20.62
2017-01-21T15:11:56.320Z,20.59
2017-01-21T15:13:06.388Z,20.62
2017-01-21T15:14:16.303Z,20.58
2017-01-21T15:15:25.596Z,20.55
2017-01-21T15:16:34.882Z,20.43
2017-01-21T15:17:44.654Z,20.42
2017-01-21T15:18:54.819Z,20.42
2017-01-21T15:20:06.597Z,20.39
2017-01-21T15:21:22.241Z,20.38
2017-01-21T15:22:36.843Z,20.35
2017-01-21T15:23:50.573Z,20.26
2017-01-21T15:24:59.859Z,20.28
2017-01-21T15:26:09.823Z,20.24
2017-01-21T15:27:19.111Z,20.21
2017-01-21T15:28:28.445Z,20.06
2017-01-21T15:29:37.727Z,20.17
2017-01-21T15:30:47.219Z,20.21
2017-01-21T15:31:56.950Z,20.05
2017-01-21T15:33:09.497Z,20.1
2017-01-21T15:34:29.977Z,20.08
2017-01-21T15:35:48.320Z,19.95
2017-01-21T15:37:06.477Z,19.99
2017-01-21T15:38:25.411Z,20.05
2017-01-21T15:39:44.208Z,20.08
2017-01-21T15:40:59.001Z,20.06
2017-01-21T15:42:09.610Z,19.99
2017-01-21T15:43:19.541Z,19.99
2017-01-21T15:44:28.821Z,19.92
2017-01-21T15:45:39.478Z,19.91
2017-01-21T15:46:49.075Z,19.98
2017-01-21T15:47:59.252Z,19.86
2017-01-21T15:49:08.978Z,19.87
2017-01-21T15:50:18.526Z,19.8
2017-01-21T15:51:29.568Z,19.83
2017-01-21T15:52:39.413Z,19.92
2017-01-21T15:53:50.018Z,19.86
2017-01-21T15:55:00.190Z,19.81
2017-01-21T15:56:09.524Z,19.71
2017-01-21T15:57:18.874Z,19.76
2017-01-21T15:58:28.167Z,19.74
2017-01-21T15:59:38.563Z,19.68
2017-01-21T16:00:47.848Z,19.68
2017-01-21T16:01:57.614Z,19.73
2017-01-21T16:03:06.906Z,19.63
2017-01-21T16:04:16.691Z,19.58
2017-01-21T16:05:25.969Z,19.61
2017-01-21T16:06:36.173Z,19.54
2017-01-21T16:07:46.396Z,19.55
2017-01-21T16:08:56.475Z,19.59
2017-01-21T16:10:06.206Z,19.5
2017-01-21T16:11:16.559Z,19.5
2017-01-21T16:12:25.841Z,19.43
2017-01-21T16:13:36.058Z,19.54
2017-01-21T16:14:47.311Z,19.56
2017-01-21T16:16:04.293Z,19.46
2017-01-21T16:17:19.389Z,19.5
2017-01-21T16:18:32.748Z,19.43
2017-01-21T16:19:42.476Z,19.47
2017-01-21T16:20:52.640Z,19.36
2017-01-21T16:22:02.798Z,19.36
2017-01-21T16:23:12.082Z,19.32
2017-01-21T16:24:21.412Z,19.28
2017-01-21T16:25:31.129Z,19.37
2017-01-21T16:26:41.291Z,19.28
2017-01-21T16:27:50.572Z,19.26
2017-01-21T16:29:00.300Z,19.32
2017-01-21T16:30:10.930Z,19.21
2017-01-21T16:31:22.790Z,19.21
2017-01-21T16:32:32.508Z,19.13
2017-01-21T16:33:43.105Z,19.18
2017-01-21T16:34:52.830Z,19.18
2017-01-21T16:36:03.071Z,19.14
2017-01-21T16:37:12.357Z,19.1
2017-01-21T16:38:21.634Z,19.08
2017-01-21T16:39:31.355Z,19.04
2017-01-21T16:40:40.636Z,19.02
2017-01-21T16:41:50.422Z,19.04
2017-01-21T16:43:00.154Z,19
2017-01-21T16:44:09.879Z,19.02
2017-01-21T16:45:19.161Z,19
2017-01-21T16:46:29.346Z,18.98
2017-01-21T16:47:39.568Z,19.06
2017-01-21T16:48:49.729Z,19
2017-01-21T16:49:59.462Z,19
2017-01-21T16:51:09.191Z,19
2017-01-21T16:52:19.356Z,18.99
2017-01-21T16:53:29.601Z,18.91
2017-01-21T16:54:38.881Z,18.9
2017-01-21T16:55:48.595Z,18.95
2017-01-21T16:56:58.744Z,19.02
2017-01-21T16:58:08.461Z,18.94
2017-01-21T16:59:17.898Z,18.95
2017-01-21T17:00:28.061Z,18.99
2017-01-21T17:01:37.345Z,18.94
2017-01-21T17:02:47.506Z,18.94
2017-01-21T17:03:57.667Z,18.92
2017-01-21T17:05:07.160Z,19
2017-01-21T17:06:17.320Z,18.9
2017-01-21T17:07:27.050Z,18.91
2017-01-21T17:08:37.664Z,18.9
2017-01-21T17:09:47.550Z,18.92
2017-01-21T17:10:57.325Z,18.81
2017-01-21T17:12:07.072Z,18.9
2017-01-21T17:13:16.801Z,18.78
2017-01-21T17:14:26.561Z,18.73
2017-01-21T17:15:35.854Z,18.87
2017-01-21T17:16:45.640Z,18.81
2017-01-21T17:17:55.808Z,18.78
2017-01-21T17:19:05.562Z,18.81
2017-01-21T17:20:15.305Z,18.82
2017-01-21T17:21:24.589Z,18.73
2017-01-21T17:22:34.809Z,18.8
2017-01-21T17:23:44.534Z,18.81
2017-01-21T17:24:55.132Z,18.76
2017-01-21T17:26:04.414Z,18.78
2017-01-21T17:27:13.693Z,18.69
2017-01-21T17:28:23.471Z,18.73
2017-01-21T17:29:34.081Z,18.7
2017-01-21T17:30:43.805Z,18.67
2017-01-21T17:31:53.543Z,18.65
2017-01-21T17:33:03.261Z,18.7
2017-01-21T17:34:12.604Z,18.66
2017-01-21T17:35:22.334Z,18.66
2017-01-21T17:36:32.503Z,18.62
2017-01-21T17:37:42.672Z,18.62
2017-01-21T17:38:52.950Z,18.57
2017-01-21T17:40:05.049Z,18.52
2017-01-21T17:41:15.384Z,18.54
2017-01-21T17:42:24.664Z,18.6
2017-01-21T17:43:34.830Z,18.57
2017-01-21T17:44:44.560Z,18.52
2017-01-21T17:45:54.432Z,18.52
2017-01-21T17:47:04.590Z,18.52
2017-01-21T17:48:14.318Z,18.52
2017-01-21T17:49:24.063Z,18.58
2017-01-21T17:50:33.349Z,18.57
2017-01-21T17:51:43.123Z,18.55
2017-01-21T17:52:53.728Z,18.52
2017-01-21T17:54:03.005Z,18.51
2017-01-21T17:55:12.734Z,18.51
2017-01-21T17:56:22.016Z,18.52
2017-01-21T17:57:31.349Z,18.52
2017-01-21T17:58:40.635Z,18.54
2017-01-21T17:59:50.363Z,18.52
2017-01-21T18:01:00.079Z,18.55
2017-01-21T18:02:10.248Z,18.57
2017-01-21T18:03:20.022Z,18.5
2017-01-21T18:04:29.755Z,18.55
2017-01-21T18:05:39.489Z,18.51
2017-01-21T18:06:49.650Z,18.39
2017-01-21T18:07:59.811Z,18.54
2017-01-21T18:09:10.025Z,18.52
2017-01-21T18:10:19.773Z,18.5
2017-01-21T18:11:29.498Z,18.45
2017-01-21T18:12:39.211Z,18.39
2017-01-21T18:13:48.945Z,18.54
2017-01-21T18:14:58.277Z,18.5
2017-01-21T18:16:08.007Z,18.44
2017-01-21T18:17:17.741Z,18.54
2017-01-21T18:18:27.482Z,18.39
2017-01-21T18:19:36.791Z,18.47
2017-01-21T18:20:47.456Z,18.51
2017-01-21T18:21:56.761Z,18.42
2017-01-21T18:23:07.361Z,18.45
2017-01-21T18:24:17.520Z,18.42
2017-01-21T18:25:27.689Z,18.41
2017-01-21T18:26:37.466Z,18.39
2017-01-21T18:27:47.629Z,18.47
2017-01-21T18:28:57.792Z,18.36
2017-01-21T18:30:07.505Z,18.39
2017-01-21T18:31:17.235Z,18.42
2017-01-21T18:32:26.568Z,18.33
2017-01-21T18:33:36.729Z,18.32
2017-01-21T18:34:46.466Z,18.37
2017-01-21T18:35:57.516Z,18.39
2017-01-21T18:37:08.117Z,18.33
2017-01-21T18:38:17.474Z,18.39
2017-01-21T18:39:27.199Z,18.35
2017-01-21T18:40:37.376Z,18.35
2017-01-21T18:41:46.658Z,18.41
2017-01-21T18:42:55.939Z,18.35
2017-01-21T18:44:06.160Z,18.39
2017-01-21T18:45:15.882Z,18.29
2017-01-21T18:46:25.162Z,18.39
2017-01-21T18:47:35.328Z,18.41
2017-01-21T18:48:44.608Z,18.33
2017-01-21T18:49:54.389Z,18.35
2017-01-21T18:51:04.119Z,18.35
2017-01-21T18:52:14.293Z,18.36
2017-01-21T18:53:24.465Z,18.36
2017-01-21T18:54:34.186Z,18.36
2017-01-21T18:55:44.404Z,18.35
2017-01-21T18:56:54.568Z,18.36
2017-01-21T18:58:04.735Z,18.37
2017-01-21T18:59:14.021Z,18.37
2017-01-21T19:00:24.189Z,18.33
2017-01-21T19:01:33.522Z,18.37
2017-01-21T19:02:42.803Z,18.33
2017-01-21T19:03:52.088Z,18.35
2017-01-21T19:05:01.374Z,18.35
2017-01-21T19:06:10.683Z,18.35
2017-01-21T19:07:21.344Z,18.35
2017-01-21T19:08:31.540Z,18.32
2017-01-21T19:09:41.262Z,18.36
2017-01-21T19:10:51.439Z,18.35
2017-01-21T19:12:02.048Z,18.32
2017-01-21T19:13:11.383Z,18.42
2017-01-21T19:14:21.111Z,18.29
2017-01-21T19:15:30.832Z,18.3
2017-01-21T19:16:41.001Z,18.35
2017-01-21T19:17:51.602Z,18.3
2017-01-21T19:19:00.936Z,18.27
2017-01-21T19:20:10.217Z,18.29
2017-01-21T19:21:19.502Z,18.3
2017-01-21T19:22:29.670Z,18.29
2017-01-21T19:23:39.841Z,18.27
2017-01-21T19:24:50.054Z,18.3
2017-01-21T19:26:00.210Z,18.25
2017-01-21T19:27:10.380Z,18.32
2017-01-21T19:28:20.990Z,18.37
2017-01-21T19:29:30.710Z,18.29
2017-01-21T19:30:40.532Z,18.2
2017-01-21T19:31:50.269Z,18.36
2017-01-21T19:32:59.990Z,18.21
2017-01-21T19:34:09.719Z,18.23
2017-01-21T19:35:19.885Z,18.3
2017-01-21T19:36:29.658Z,18.25
2017-01-21T19:37:39.379Z,18.35
2017-01-21T19:38:48.664Z,18.3
2017-01-21T19:39:58.384Z,18.21
2017-01-21T19:41:08.982Z,18.25
2017-01-21T19:42:18.314Z,18.17
2017-01-21T19:43:28.477Z,18.25
2017-01-21T19:44:38.634Z,18.2
2017-01-21T19:45:47.919Z,18.23
2017-01-21T19:46:57.640Z,18.27
2017-01-21T19:48:06.981Z,18.23
2017-01-21T19:49:18.031Z,18.2
2017-01-21T19:50:27.747Z,18.2
2017-01-21T19:51:37.465Z,18.25
2017-01-21T19:52:47.218Z,18.23
2017-01-21T19:53:56.547Z,18.23
2017-01-21T19:55:06.711Z,18.23
2017-01-21T19:56:16.438Z,18.2
2017-01-21T19:57:26.183Z,18.2
2017-01-21T19:58:36.342Z,18.23
2017-01-21T19:59:46.113Z,18.23
2017-01-21T20:00:56.287Z,18.25
2017-01-21T20:02:06.016Z,18.2
2017-01-21T20:03:15.737Z,18.21
2017-01-21T20:04:25.471Z,18.23
2017-01-21T20:05:35.298Z,18.23
2017-01-21T20:06:45.460Z,18.2
2017-01-21T20:07:54.752Z,18.23
2017-01-21T20:09:04.906Z,18.3
2017-01-21T20:10:14.631Z,18.25
2017-01-21T20:11:24.416Z,18.23
2017-01-21T20:12:34.133Z,18.21
2017-01-21T20:13:43.863Z,18.2
2017-01-21T20:14:54.465Z,18.17
2017-01-21T20:16:04.191Z,18.18
2017-01-21T20:17:13.971Z,18.23
2017-01-21T20:18:24.576Z,18.23
2017-01-21T20:19:34.732Z,18.2
2017-01-21T20:20:44.458Z,18.25
2017-01-21T20:21:54.195Z,18.23
2017-01-21T20:23:04.400Z,18.26
2017-01-21T20:24:15.010Z,18.18
2017-01-21T20:25:25.179Z,18.25
2017-01-21T20:26:35.343Z,18.25
2017-01-21T20:27:45.070Z,18.21
2017-01-21T20:28:54.850Z,18.21
2017-01-21T20:30:05.444Z,18.17
2017-01-21T20:31:16.057Z,18.23
2017-01-21T20:32:25.781Z,18.17
2017-01-21T20:33:35.947Z,18.23
2017-01-21T20:34:45.728Z,18.17
2017-01-21T20:35:55.458Z,18.18
2017-01-21T20:37:05.183Z,18.2
2017-01-21T20:38:14.912Z,18.2
2017-01-21T20:39:24.201Z,18.21
2017-01-21T20:40:34.414Z,18.23
2017-01-21T20:41:45.448Z,18.2
2017-01-21T20:42:55.177Z,18.18
2017-01-21T20:44:05.343Z,18.21
2017-01-21T20:45:15.066Z,18.21
2017-01-21T20:46:24.843Z,18.18
2017-01-21T20:47:34.573Z,18.21
2017-01-21T20:48:45.170Z,18.25
2017-01-21T20:49:54.897Z,18.17
2017-01-21T20:51:04.181Z,18.21
2017-01-21T20:52:13.510Z,18.21
2017-01-21T20:53:22.796Z,18.15
2017-01-21T20:54:32.959Z,18.15
2017-01-21T20:55:42.241Z,18.17
2017-01-21T20:56:51.970Z,18.17
2017-01-21T20:58:03.071Z,18.15
2017-01-21T20:59:13.238Z,18.21
2017-01-21T21:00:23.425Z,18.17
2017-01-21T21:01:33.587Z,18.26
2017-01-21T21:02:43.747Z,18.21
2017-01-21T21:03:53.962Z,18.15
2017-01-21T21:05:04.131Z,18.17
2017-01-21T21:06:14.292Z,18.15
2017-01-21T21:07:23.573Z,18.18
2017-01-21T21:08:33.295Z,18.11
2017-01-21T21:09:43.064Z,18.17
2017-01-21T21:10:53.227Z,18.15
2017-01-21T21:12:02.945Z,18.14
2017-01-21T21:13:12.223Z,18.15
2017-01-21T21:14:21.943Z,18.23
2017-01-21T21:15:31.716Z,18.11
2017-01-21T21:16:40.993Z,18.14
2017-01-21T21:17:50.719Z,18.14
2017-01-21T21:18:59.999Z,18.1
2017-01-21T21:20:09.292Z,18.08
2017-01-21T21:21:19.517Z,18.03
2017-01-21T21:22:29.674Z,18.15
2017-01-21T21:23:39.840Z,18.14
2017-01-21T21:24:49.597Z,18.18
2017-01-21T21:25:59.321Z,18.14
2017-01-21T21:27:09.099Z,18.2
2017-01-21T21:28:18.379Z,18.11
2017-01-21T21:29:28.544Z,18.12
2017-01-21T21:30:38.723Z,18.15
2017-01-21T21:31:48.446Z,17.97
2017-01-21T21:32:58.221Z,16.91
2017-01-21T21:34:07.505Z,16.34
2017-01-21T21:35:16.794Z,15.29
2017-01-21T21:36:27.307Z,14.25
2017-01-21T21:37:37.701Z,13.42
2017-01-21T21:38:49.320Z,13
2017-01-21T21:40:02.544Z,13
2017-01-21T21:41:14.876Z,12.87
2017-01-21T21:42:25.829Z,12.64
2017-01-21T21:43:36.546Z,12.21
2017-01-21T21:44:46.876Z,12.1
2017-01-21T21:45:57.721Z,11.8
2017-01-21T21:47:07.574Z,11.55
2017-01-21T21:48:17.471Z,11.17
2017-01-21T21:49:27.292Z,10.68
2017-01-21T21:50:37.037Z,10.42
2017-01-21T21:51:47.907Z,10.26
2017-01-21T21:52:58.421Z,10.3
2017-01-21T21:54:08.333Z,10.88
2017-01-21T21:55:18.190Z,11.55
2017-01-21T21:56:28.640Z,11.99
2017-01-21T21:57:38.472Z,12.49
2017-01-21T21:58:49.177Z,12.79
2017-01-21T21:59:59.655Z,13.12
2017-01-21T22:01:09.963Z,13.44
2017-01-21T22:02:19.881Z,13.6
2017-01-21T22:03:30.614Z,13.82
2017-01-21T22:04:41.087Z,13.89
2017-01-21T22:05:51.876Z,14.15
2017-01-21T22:07:02.790Z,14.14
2017-01-21T22:08:13.090Z,14.32
2017-01-21T22:09:23.582Z,14.39
2017-01-21T22:10:33.834Z,14.45
2017-01-21T22:11:44.002Z,14.58
2017-01-21T22:12:53.663Z,14.64
2017-01-21T22:14:04.901Z,14.62
2017-01-21T22:15:14.855Z,14.7
2017-01-21T22:16:24.658Z,14.78
2017-01-21T22:17:34.984Z,14.77
2017-01-21T22:18:44.975Z,14.84
2017-01-21T22:19:54.478Z,14.86
2017-01-21T22:21:04.715Z,14.96
2017-01-21T22:22:15.489Z,14.99
2017-01-21T22:23:26.067Z,14.92
2017-01-21T22:24:37.079Z,14.94
2017-01-21T22:25:48.301Z,15.03
2017-01-21T22:26:58.098Z,14.96
2017-01-21T22:28:08.303Z,14.96
2017-01-21T22:29:19.825Z,15.07
2017-01-21T22:30:30.214Z,15.02
2017-01-21T22:31:41.178Z,15.01
2017-01-21T22:32:52.348Z,15.03
2017-01-21T22:34:01.793Z,15.02
2017-01-21T22:35:12.099Z,15.03
2017-01-21T22:36:21.604Z,15.06
2017-01-21T22:37:31.848Z,15.11
2017-01-21T22:38:42.769Z,15.09
2017-01-21T22:39:52.790Z,15.1
2017-01-21T22:41:02.589Z,15.19
2017-01-21T22:42:12.557Z,15.17
2017-01-21T22:43:22.262Z,15.16
2017-01-21T22:44:32.872Z,15.2
